Flight Track Log - Related Links

Times and Time Zones

All times are in EDT time to prevent confusion due to time zone crossing. See the AAY654 flight status page for this flight to view local times or setup timezone preferences in your user account.

Time Position Orientation Groundspeed Altitude Reporting Facility
EDT Latitude Longitude Course Direction KTS MPH feet Rate Location/Type
Fri 04:32:45 PM 28.7833 -81.2167 60° Northeast 165 190 1,000  Level Orlando TRACON
Fri 04:33:21 PM 28.8000 -81.1833 60° Northeast 178 205 2,100 2,400 Climbing Orlando TRACON
Fri 04:35:40 PM 28.9308 -81.2961 323° Northwest 270 311 8,000 2,623 Climbing Jacksonville Center
Fri 04:36:40 PM 28.9983 -81.3519 324° Northwest 280 322 10,800 2,050 Climbing Jacksonville Center
Fri 04:37:40 PM 29.0803 -81.3981 334° Northwest 307 353 12,100 1,700 Climbing Jacksonville Center
Fri 04:38:40 PM 29.1869 -81.4014 358° North 338 389 14,200 2,250 Climbing Jacksonville Center
Fri 04:39:40 PM 29.3017 -81.4067 358° North 373 429 16,600 2,300 Climbing Jacksonville Center
Fri 04:40:40 PM 29.4147 -81.4192 354° North 398 458 18,800 2,000 Climbing Jacksonville Center
Fri 04:41:40 PM 29.5336 -81.4342 354° North 417 480 20,600 1,900 Climbing Jacksonville Center
Fri 04:42:40 PM 29.6531 -81.4564 351° North 428 493 22,600 2,350 Climbing Jacksonville Center
Fri 04:43:40 PM 29.7722 -81.4736 353° North 428 493 25,300 1,700 Climbing Jacksonville Center
Fri 04:44:40 PM 29.8872 -81.4983 349° North 422 486 26,000 750 Climbing Jacksonville Center
Fri 04:45:40 PM 30.0064 -81.5206 351° North 427 491 26,800 1,200 Climbing Jacksonville Center
Fri 04:46:40 PM 30.1300 -81.5453 350° North 437 503 28,400 1,100 Climbing Jacksonville Center
Fri 04:47:40 PM 30.2533 -81.5675 351° North 437 503 29,000 300 Climbing Jacksonville Center
Fri 04:48:40 PM 30.3747 -81.5900 351° North 442 509 29,000  Level Jacksonville Center
Fri 04:49:40 PM 30.4981 -81.6147 350° North 447 514 29,000  Level Jacksonville Center
Fri 04:50:40 PM 30.6194 -81.6372 351° North 447 514 29,000  Level Jacksonville Center
Fri 04:51:40 PM 30.7408 -81.6600 351° North 442 509 29,000  Level Jacksonville Center
Fri 04:52:40 PM 30.8494 -81.6828 350° North 437 503 29,000  Level Jacksonville Center
Fri 04:53:40 PM 30.9689 -81.7053 351° North 437 503 29,000 600 Level Jacksonville Center
Fri 04:54:40 PM 31.0922 -81.7306 350° North 437 503 30,200 1,300 Climbing Jacksonville Center
Fri 04:55:40 PM 31.2136 -81.7558 350° North 437 503 31,600 1,200 Climbing Jacksonville Center
Fri 04:56:40 PM 31.3328 -81.7908 346° North 437 503 32,600 700 Climbing Jacksonville Center
Fri 04:57:40 PM 31.4500 -81.8186 349° North 432 497 33,000 200 Climbing Jacksonville Center
Fri 04:58:40 PM 31.5819 -81.8561 346° North 432 497 33,000  Level Jacksonville Center
Fri 04:59:40 PM 31.6992 -81.8889 347° North 432 497 33,000  Level Jacksonville Center
Fri 05:00:40 PM 31.8058 -81.9197 346° North 427 491 33,000  Level Jacksonville Center
Fri 05:02:56 PM 32.0925 -81.9794 350° North 426 490 33,000  Level Atlanta Center
Fri 05:03:56 PM 32.2158 -81.9939 354° North 437 503 33,000  Level Atlanta Center
Fri 05:04:56 PM 32.3267 -82.0086 354° North 437 503 33,000  Level Atlanta Center
Fri 05:05:56 PM 32.4481 -82.0181 356° North 443 510 33,000  Level Atlanta Center
Fri 05:06:56 PM 32.5861 -82.0347 354° North 448 516 33,000  Level Atlanta Center
Fri 05:07:56 PM 32.7114 -82.0467 355° North 448 516 33,000  Level Atlanta Center
Fri 05:08:56 PM 32.8078 -82.0617 353° North 443 510 33,000  Level Atlanta Center
Fri 05:09:56 PM 32.9603 -82.0781 355° North 443 510 33,000  Level Atlanta Center
Fri 05:10:56 PM 33.0817 -82.0878 356° North 443 510 33,000  Level Atlanta Center
Fri 05:11:56 PM 33.2050 -82.1022 354° North 443 510 33,000  Level Atlanta Center
Fri 05:12:56 PM 33.3283 -82.1194 353° North 443 510 33,000  Level Atlanta Center
Fri 05:13:56 PM 33.4497 -82.1317 355° North 443 510 33,000  Level Atlanta Center
Fri 05:14:56 PM 33.5750 -82.1439 355° North 443 510 33,000  Level Atlanta Center
Fri 05:15:56 PM 33.6983 -82.1586 354° North 443 510 33,000  Level Atlanta Center
Fri 05:16:56 PM 33.8233 -82.1408 North 443 510 33,000  Level Atlanta Center
Fri 05:17:56 PM 33.9336 -82.1183 10° North 443 510 33,000  Level Atlanta Center
Fri 05:18:56 PM 34.0586 -82.1006 North 443 510 33,000  Level Atlanta Center
Fri 05:19:56 PM 34.1814 -82.0753 10° North 443 510 33,000  Level Atlanta Center
Fri 05:20:56 PM 34.3000 -82.0597 North 443 510 33,000  Level Atlanta Center
Fri 05:21:56 PM 34.4228 -82.0367 North 438 504 33,000  Level Atlanta Center
Fri 05:22:56 PM 34.5436 -82.0164 North 443 510 33,000  Level Atlanta Center
Fri 05:23:56 PM 34.6622 -81.9958 North 443 510 33,000  Level Atlanta Center
Fri 05:24:56 PM 34.7850 -81.9725 North 443 510 33,000  Level Atlanta Center
Fri 05:25:56 PM 34.9078 -81.9517 North 443 510 33,000  Level Atlanta Center
Fri 05:26:56 PM 35.0408 -81.9306 North 443 510 33,000  Level Atlanta Center
Fri 05:27:56 PM 35.1619 -81.9275 North 443 510 33,000  Level Atlanta Center
Fri 05:28:56 PM 35.2847 -81.9169 North 438 504 33,000  Level Atlanta Center
Fri 05:29:56 PM 35.4078 -81.9161 360° North 438 504 33,000  Level Atlanta Center
Fri 05:30:56 PM 35.5308 -81.9053 North 438 504 33,000  Level Atlanta Center
Fri 05:31:56 PM 35.6539 -81.9022 North 438 504 33,000  Level Atlanta Center
Fri 05:32:56 PM 35.7642 -81.8967 North 438 504 33,000  Level Atlanta Center
Fri 05:33:56 PM 35.8872 -81.8908 North 438 504 33,000  Level Atlanta Center
Fri 05:34:56 PM 36.0103 -81.8850 North 438 504 33,000 500 Level Atlanta Center
Fri 05:35:56 PM 36.1331 -81.8792 North 438 504 34,000 800 Climbing Atlanta Center
Fri 05:36:56 PM 36.2664 -81.8706 North 438 504 34,600 500 Climbing Atlanta Center
Fri 05:37:56 PM 36.3872 -81.8647 North 438 504 35,000 200 Climbing Atlanta Center
Fri 05:38:56 PM 36.5122 -81.8561 North 438 504 35,000  Level Atlanta Center
Fri 05:39:56 PM 36.6186 -81.8531 North 433 498 35,000  Level Atlanta Center
Fri 05:40:56 PM 36.7436 -81.8472 North 444 511 35,000  Level Atlanta Center
Fri 05:42:53 PM 36.9892 -81.8361 North 447 514 35,000  Level Indianapolis Center
Fri 05:43:55 PM 37.1114 -81.8433 357° North 442 509 35,000  Level Indianapolis Center
Fri 05:44:57 PM 37.2331 -81.8617 353° North 440 506 35,000  Level Indianapolis Center
Fri 05:45:59 PM 37.3742 -81.8800 354° North 438 504 35,000  Level Indianapolis Center
Fri 05:47:01 PM 37.4944 -81.8936 355° North 435 501 35,000  Level Indianapolis Center
Fri 05:48:03 PM 37.6125 -81.8486 17° North 445 512 35,000  Level Indianapolis Center
Fri 05:49:05 PM 37.7306 -81.7886 22° Northeast 453 521 35,000  Level Indianapolis Center
Fri 05:50:07 PM 37.8497 -81.7717 North 439 505 35,000  Level Indianapolis Center
Fri 05:51:08 PM 37.9731 -81.7731 359° North 442 509 35,000  Level Indianapolis Center
Fri 05:52:10 PM 38.1219 -81.7753 359° North 444 511 35,000  Level Indianapolis Center
Fri 05:53:12 PM 38.2461 -81.7764 360° North 444 511 35,000  Level Indianapolis Center
Fri 05:54:14 PM 38.3714 -81.7656 North 448 516 35,000  Level Indianapolis Center
Fri 05:55:16 PM 38.4872 -81.6958 25° Northeast 460 529 35,000  Level Indianapolis Center
Fri 05:56:18 PM 38.6003 -81.6269 25° Northeast 451 519 35,000  Level Indianapolis Center
Fri 05:57:20 PM 38.7283 -81.5469 26° Northeast 449 517 35,000  Level Indianapolis Center
Fri 05:58:22 PM 38.8372 -81.4792 26° Northeast 454 522 35,000  Level Indianapolis Center
Fri 05:59:24 PM 38.9508 -81.4089 26° Northeast 453 521 35,000  Level Indianapolis Center
Fri 06:00:26 PM 39.0650 -81.3375 26° Northeast 457 526 35,000  Level Indianapolis Center
Fri 06:01:28 PM 39.1792 -81.2686 25° Northeast 453 521 35,000  Level Indianapolis Center
Fri 06:02:30 PM 39.3147 -81.1811 27° Northeast 452 520 35,000  Level Indianapolis Center
Fri 06:03:32 PM 39.4272 -81.1119 25° Northeast 449 517 35,000  Level Indianapolis Center
Fri 06:04:34 PM 39.5392 -81.0397 26° Northeast 448 516 35,000  Level Indianapolis Center
Fri 06:05:32 PM 39.6558 -80.9658 26° Northeast 442 509 35,000  Level Cleveland Center
Fri 06:06:32 PM 39.7667 -80.8964 26° Northeast 442 509 35,000  Level Cleveland Center
Fri 06:07:32 PM 39.8814 -80.8239 26° Northeast 447 514 35,000  Level Cleveland Center
Fri 06:08:32 PM 39.9919 -80.7539 26° Northeast 447 514 35,000  Level Cleveland Center
Fri 06:09:32 PM 40.1047 -80.6836 25° Northeast 447 514 35,000 -200 Level Cleveland Center
Fri 06:10:32 PM 40.2153 -80.6103 27° Northeast 447 514 34,600 -700 Descending Cleveland Center
Fri 06:11:32 PM 40.3278 -80.5367 27° Northeast 442 509 33,600 -800 Descending Cleveland Center
Fri 06:12:32 PM 40.4278 -80.4739 26° Northeast 442 509 33,000 -500 Descending Cleveland Center
Fri 06:13:32 PM 40.5381 -80.4000 27° Northeast 442 509 32,600 -650 Descending Cleveland Center
Fri 06:14:32 PM 40.6464 -80.3286 27° Northeast 442 509 31,700 -950 Descending Cleveland Center
Fri 06:15:32 PM 40.7733 -80.2486 26° Northeast 442 509 30,700 -950 Descending Cleveland Center
Fri 06:16:32 PM 40.8731 -80.1739 30° Northeast 453 521 29,800 -950 Descending Cleveland Center
Fri 06:17:32 PM 40.9814 -80.0936 29° Northeast 453 521 28,800 -950 Descending Cleveland Center
Fri 06:18:32 PM 41.0956 -80.0128 28° Northeast 453 521 27,900 -1,200 Descending Cleveland Center
Fri 06:19:32 PM 41.2161 -79.9261 28° Northeast 453 521 26,400 -1,750 Descending Cleveland Center
Fri 06:20:32 PM 41.3303 -79.8475 27° Northeast 458 527 24,400 -1,200 Descending Cleveland Center
Fri 06:21:32 PM 41.4339 -79.7689 30° Northeast 446 513 24,000 -200 Descending Cleveland Center
Fri 06:22:32 PM 41.5375 -79.6928 29° Northeast 433 498 24,000 -550 Level Cleveland Center
Fri 06:23:32 PM 41.6392 -79.6189 29° Northeast 428 493 22,900 -1,950 Descending Cleveland Center
Fri 06:24:32 PM 41.7406 -79.5425 29° Northeast 417 480 20,100 -2,400 Descending Cleveland Center
Fri 06:25:32 PM 41.8378 -79.4711 29° Northeast 407 468 18,100 -1,700 Descending Cleveland Center
Fri 06:26:32 PM 41.9289 -79.4053 28° Northeast 390 449 16,700 -1,250 Descending Cleveland Center
Fri 06:27:32 PM 42.0178 -79.3394 29° Northeast 372 428 15,600 -1,050 Descending Cleveland Center
Fri 06:28:32 PM 42.1047 -79.2733 29° Northeast 366 421 14,600 -900 Descending Cleveland Center
Fri 06:29:32 PM 42.1914 -79.2072 29° Northeast 361 415 13,800 -800 Descending Cleveland Center
Fri 06:30:32 PM 42.2761 -79.1436 29° Northeast 356 410 13,000 -800 Descending Cleveland Center
Fri 06:31:32 PM 42.3608 -79.0800 29° Northeast 346 398 12,200 -800 Descending Cleveland Center
Fri 06:32:32 PM 42.4475 -79.0244 25° Northeast 340 391 11,400 -850 Descending Cleveland Center
Fri 06:33:32 PM 42.5389 -78.9911 15° North 340 391 10,500 -700 Descending Cleveland Center
Fri 06:34:32 PM 42.6222 -78.9833 North 314 361 10,000 -700 Descending Cleveland Center
Fri 06:35:32 PM 42.6950 -78.9786 North 299 344 9,100 -1,250 Descending Cleveland Center
Fri 06:36:32 PM 42.7761 -78.9653 North 273 314 7,500 -1,550 Descending Cleveland Center
Fri 06:37:32 PM 42.8486 -78.9294 20° North 267 307 6,000 -1,094 Descending Cleveland Center
Fri 06:39:11 PM 42.9500 -78.8667 24° Northeast 232 267 4,600 -868 Descending Buffalo TRACON
Fri 06:40:11 PM 43.0167 -78.8500 10° North 209 241 3,700 -1,150 Descending Buffalo TRACON
Fri 06:41:11 PM 43.0667 -78.8333 14° North 194 223 2,300 -1,050 Descending Buffalo TRACON
Fri 06:42:11 PM 43.1000 -78.8333 360° North 152 175 1,600 -650 Descending Buffalo TRACON
Fri 06:43:11 PM 43.1167 -78.9000 289° West 144 166 1,000 -600 Descending Buffalo TRACON

Login

Don't have an account? Register now (free) for customized features, flight alerts, and more!